Terminal Aerodrome Forecast
Issued by NWS Rapid City, SD

Home | Current Version | Previous Version | Graphics & Text | Print | Product List | Glossary Off
Versions: 1 2 3 4 5 6 7 8 9 10 11 12 13 14 15 16 17 18 19 20 21

000
FTUS43 KUNR 221700
TAFRAP
TAF
KRAP 221720Z 2218/2318 03007KT P6SM BKN011
     FM221830 05008KT P6SM SCT015 SCT035
     FM222000 10010KT P6SM SCT035 BKN100
     FM230100 14007KT P6SM -SHRA SCT015 BKN035
     FM230500 11010KT 5SM -SHRA BR OVC012
     FM231300 VRB05KT 3SM -SHRA BR OVC006=

USA.gov is the U.S. government's official web portal to all federal, state and local government web resources and services.